Time;durP1;ratioP1;P1;durP2;ratioP2;P2;SDS_P1;SDS_P2;PMS_P1;PMS_P2;Temp;Humidity;BMP_temperature;BMP_pressure;BME280_temperature;BME280_humidity;BME280_pressure;Samples;Min_cycle;Max_cycle;Signal;HPM_P1;HPM_P2
2023/07/27 00:00:54;;;;;;;0.47;0.47;;;14.30;99.90;;;;;;5095997;28;20194;-76
2023/07/27 00:03:20;;;;;;;0.40;0.40;;;14.40;99.90;;;;;;5096313;28;20294;-75
2023/07/27 00:05:46;;;;;;;0.30;0.30;;;14.40;99.90;;;;;;5096160;28;20036;-75
2023/07/27 00:08:11;;;;;;;0.30;0.30;;;14.40;99.90;;;;;;5096402;28;20357;-76
2023/07/27 00:10:37;;;;;;;0.30;0.30;;;14.40;99.90;;;;;;5095916;28;20044;-75
2023/07/27 00:13:03;;;;;;;0.30;0.30;;;14.50;99.90;;;;;;5096058;28;20036;-75
2023/07/27 00:15:28;;;;;;;0.40;0.40;;;14.50;99.90;;;;;;5096286;28;20476;-75
2023/07/27 00:17:54;;;;;;;0.50;0.50;;;14.50;99.90;;;;;;5095856;28;20040;-75
2023/07/27 00:20:19;;;;;;;0.40;0.40;;;14.50;99.90;;;;;;5095996;28;20387;-75
2023/07/27 00:22:45;;;;;;;0.30;0.30;;;14.60;99.90;;;;;;5095961;28;20375;-76
2023/07/27 00:25:11;;;;;;;0.43;0.43;;;14.60;99.90;;;;;;5095847;28;20089;-75
2023/07/27 00:27:36;;;;;;;0.30;0.30;;;14.60;99.90;;;;;;5095792;28;20028;-75
2023/07/27 00:30:02;;;;;;;0.40;0.40;;;14.60;99.90;;;;;;5095664;28;20048;-76
2023/07/27 00:32:28;;;;;;;0.50;0.40;;;14.60;99.90;;;;;;5095599;28;20036;-75
2023/07/27 00:34:54;;;;;;;0.30;0.30;;;14.60;99.90;;;;;;5095409;28;20058;-76
2023/07/27 00:37:19;;;;;;;0.30;0.30;;;14.60;99.90;;;;;;5095320;28;20130;-75
2023/07/27 00:39:45;;;;;;;0.30;0.30;;;14.60;99.90;;;;;;5095539;28;20044;-75
2023/07/27 00:42:11;;;;;;;0.50;0.50;;;14.70;99.90;;;;;;5095420;28;20365;-75
2023/07/27 00:44:36;;;;;;;0.40;0.40;;;14.70;99.90;;;;;;5095452;28;20042;-74
2023/07/27 00:47:02;;;;;;;0.50;0.50;;;14.70;99.90;;;;;;5095626;28;20165;-76
2023/07/27 00:49:29;;;;;;;0.85;0.50;;;14.70;99.90;;;;;;5095387;28;20047;-75
2023/07/27 00:51:56;;;;;;;0.60;0.60;;;14.70;99.90;;;;;;5095293;28;20456;-75
2023/07/27 00:54:22;;;;;;;0.30;0.30;;;14.70;99.90;;;;;;5095156;28;20046;-74
2023/07/27 00:56:47;;;;;;;0.30;0.30;;;14.60;99.90;;;;;;5095137;28;20036;-75
2023/07/27 00:59:13;;;;;;;0.37;0.37;;;14.70;99.90;;;;;;5095533;28;20040;-75
2023/07/27 01:01:39;;;;;;;0.38;0.38;;;14.70;99.90;;;;;;5094969;28;20119;-75
2023/07/27 01:04:04;;;;;;;0.40;0.40;;;14.60;99.90;;;;;;5095087;28;20032;-75
2023/07/27 01:06:30;;;;;;;0.30;0.30;;;14.60;99.90;;;;;;5095021;28;20043;-75
2023/07/27 01:08:56;;;;;;;0.30;0.30;;;14.70;99.90;;;;;;5095073;28;20451;-75
2023/07/27 01:11:35;;;;;;;0.30;0.30;;;14.70;99.90;;;;;;5093757;28;20122;-75
2023/07/27 01:14:10;;;;;;;0.30;0.30;;;14.70;99.90;;;;;;5094741;28;20046;-75
2023/07/27 01:16:50;;;;;;;0.30;0.30;;;14.70;99.90;;;;;;5094799;28;20062;-76
2023/07/27 01:19:35;;;;;;;0.40;0.40;;;14.80;99.90;;;;;;5094673;28;20087;-74
2023/07/27 01:22:21;;;;;;;0.85;0.65;;;14.80;99.90;;;;;;5095126;28;20040;-76
2023/07/27 01:24:53;;;;;;;0.77;0.50;;;14.70;99.90;;;;;;5094914;28;20121;-75
2023/07/27 01:27:29;;;;;;;0.30;0.30;;;14.80;99.90;;;;;;5094435;28;20369;-74
2023/07/27 01:30:18;;;;;;;0.40;0.40;;;14.80;99.90;;;;;;5094965;28;20440;-75
2023/07/27 01:32:47;;;;;;;0.30;0.30;;;14.70;99.90;;;;;;5094373;28;20040;-75
2023/07/27 01:35:15;;;;;;;0.30;0.30;;;14.70;99.90;;;;;;5094657;28;20039;-76
2023/07/27 01:37:43;;;;;;;0.40;0.40;;;14.70;99.90;;;;;;5094192;28;20039;-74
2023/07/27 01:40:11;;;;;;;0.30;0.30;;;14.70;99.90;;;;;;5094472;28;20101;-75
2023/07/27 01:42:37;;;;;;;0.30;0.30;;;14.70;99.90;;;;;;5094429;28;20044;-75
2023/07/27 01:45:04;;;;;;;0.40;0.40;;;14.60;99.90;;;;;;5093338;28;20038;-75
2023/07/27 01:47:29;;;;;;;;;;;14.60;99.90;;;;;;5095002;28;20415;-75
2023/07/27 01:49:56;;;;;;;0.30;0.30;;;14.60;99.90;;;;;;5093452;28;19916;-75
2023/07/27 01:52:23;;;;;;;0.50;0.50;;;14.60;99.90;;;;;;5094139;28;20368;-75
2023/07/27 01:54:50;;;;;;;0.30;0.30;;;14.50;99.90;;;;;;5094843;28;20040;-76
2023/07/27 01:57:17;;;;;;;0.30;0.30;;;14.40;99.90;;;;;;5094368;28;20123;-76
2023/07/27 01:59:43;;;;;;;0.30;0.30;;;14.40;99.90;;;;;;5094285;28;20043;-74
2023/07/27 02:02:09;;;;;;;1.23;0.95;;;14.40;99.90;;;;;;5094036;28;20047;-74
2023/07/27 02:04:35;;;;;;;0.30;0.30;;;14.40;99.90;;;;;;5094077;28;20380;-74
2023/07/27 02:07:00;;;;;;;0.40;0.40;;;14.40;99.90;;;;;;5093927;28;20047;-75
2023/07/27 02:09:26;;;;;;;0.40;0.40;;;14.40;99.90;;;;;;5094651;28;20042;-75
2023/07/27 02:11:56;;;;;;;0.40;0.40;;;14.40;99.90;;;;;;5093992;28;20456;-75
2023/07/27 02:14:43;;;;;;;0.50;0.50;;;14.30;99.90;;;;;;5093830;28;20472;-74
2023/07/27 02:17:19;;;;;;;0.40;0.40;;;14.40;99.90;;;;;;5093944;28;20044;-74
2023/07/27 02:19:50;;;;;;;0.40;0.40;;;14.30;99.90;;;;;;5093868;28;20476;-74
2023/07/27 02:22:16;;;;;;;0.65;0.65;;;14.30;99.90;;;;;;5093740;28;20440;-75
2023/07/27 02:24:42;;;;;;;0.40;0.40;;;14.30;99.90;;;;;;5093892;28;20112;-75
2023/07/27 02:27:08;;;;;;;0.30;0.30;;;14.30;99.90;;;;;;5093201;28;20362;-74
2023/07/27 02:29:34;;;;;;;0.30;0.30;;;14.30;99.90;;;;;;5093855;28;20123;-75
2023/07/27 02:31:59;;;;;;;0.30;0.30;;;14.30;99.90;;;;;;5093691;28;20305;-75
2023/07/27 02:34:25;;;;;;;0.40;0.40;;;14.30;99.90;;;;;;5093290;28;20036;-75
2023/07/27 02:36:51;;;;;;;0.30;0.30;;;14.30;99.90;;;;;;5093777;28;20086;-75
2023/07/27 02:39:16;;;;;;;0.85;0.85;;;14.30;99.90;;;;;;5094050;28;20040;-74
2023/07/27 02:41:42;;;;;;;0.40;0.40;;;14.30;99.90;;;;;;5093545;28;20044;-75
2023/07/27 02:44:07;;;;;;;0.30;0.30;;;14.30;99.90;;;;;;5093637;28;20488;-75
2023/07/27 02:46:33;;;;;;;0.30;0.30;;;14.30;99.90;;;;;;5093517;28;20479;-74
2023/07/27 02:48:59;;;;;;;0.50;0.50;;;14.30;99.90;;;;;;5093569;28;20043;-75
2023/07/27 02:51:24;;;;;;;0.30;0.30;;;14.30;99.90;;;;;;5093588;28;20036;-74
2023/07/27 02:53:50;;;;;;;0.50;0.50;;;14.30;99.90;;;;;;5093497;28;20532;-75
2023/07/27 02:56:15;;;;;;;0.30;0.30;;;14.30;99.90;;;;;;5093563;28;20468;-75
2023/07/27 02:58:41;;;;;;;1.42;0.77;;;14.30;99.90;;;;;;5093538;28;20137;-75
2023/07/27 03:01:06;;;;;;;0.40;0.40;;;14.30;99.90;;;;;;5093715;28;20382;-74
2023/07/27 03:03:32;;;;;;;0.40;0.40;;;14.40;99.90;;;;;;5093456;28;20043;-75
2023/07/27 03:05:59;;;;;;;0.30;0.30;;;14.30;99.90;;;;;;5093492;28;20421;-74
2023/07/27 03:08:28;;;;;;;0.60;0.60;;;14.30;99.90;;;;;;5093457;28;20132;-75
2023/07/27 03:10:55;;;;;;;0.30;0.30;;;14.30;99.90;;;;;;5093309;28;20384;-74
2023/07/27 03:13:20;;;;;;;0.45;0.45;;;14.30;99.90;;;;;;5093340;28;20028;-75
2023/07/27 03:15:46;;;;;;;0.40;0.40;;;14.30;99.90;;;;;;5093758;28;20032;-75
2023/07/27 03:18:12;;;;;;;0.40;0.40;;;14.30;99.90;;;;;;5093030;28;20048;-74
2023/07/27 03:20:41;;;;;;;0.70;0.70;;;14.30;99.90;;;;;;5093335;28;20095;-75
2023/07/27 03:23:08;;;;;;;0.50;0.50;;;14.30;99.90;;;;;;5093261;28;20055;-74
2023/07/27 03:25:34;;;;;;;;;;;14.30;99.90;;;;;;5093885;28;20032;-75
2023/07/27 03:28:02;;;;;;;0.65;0.65;;;14.30;99.90;;;;;;5093241;28;19916;-75
2023/07/27 03:30:27;;;;;;;0.90;0.77;;;14.30;99.90;;;;;;5093131;28;20047;-75
2023/07/27 03:32:53;;;;;;;0.40;0.40;;;14.30;99.90;;;;;;5093126;28;20032;-75
2023/07/27 03:35:18;;;;;;;0.40;0.40;;;14.30;99.90;;;;;;5095004;28;20035;-74
2023/07/27 03:37:44;;;;;;;0.40;0.40;;;14.30;99.90;;;;;;5097179;28;20414;-74
2023/07/27 03:40:10;;;;;;;0.50;0.50;;;14.30;99.90;;;;;;5096790;28;20472;-75
2023/07/27 03:42:35;;;;;;;0.53;0.50;;;14.30;99.90;;;;;;5096691;28;20170;-75
2023/07/27 03:45:01;;;;;;;0.50;0.50;;;14.30;99.90;;;;;;5096692;28;20080;-75
2023/07/27 03:47:26;;;;;;;0.55;0.50;;;14.30;99.90;;;;;;5096551;28;20132;-74
2023/07/27 03:49:52;;;;;;;0.30;0.30;;;14.30;99.90;;;;;;5096837;28;20093;-74
2023/07/27 03:52:18;;;;;;;0.73;0.50;;;14.30;99.90;;;;;;5096207;28;20072;-75
2023/07/27 03:54:43;;;;;;;0.63;0.53;;;14.30;99.90;;;;;;5096773;28;20040;-74
2023/07/27 03:57:09;;;;;;;0.57;0.57;;;14.30;99.90;;;;;;5096669;28;20036;-74
2023/07/27 03:59:34;;;;;;;0.50;0.50;;;14.20;99.90;;;;;;5096380;28;20098;-75
2023/07/27 04:02:00;;;;;;;1.40;0.90;;;14.20;99.90;;;;;;5096207;28;20051;-74
2023/07/27 04:04:26;;;;;;;0.55;0.50;;;14.20;99.90;;;;;;5096333;28;20110;-75
2023/07/27 04:06:51;;;;;;;0.30;0.30;;;14.20;99.90;;;;;;5096339;28;20472;-75
2023/07/27 04:09:17;;;;;;;0.40;0.40;;;14.20;99.90;;;;;;5096218;28;20085;-74
2023/07/27 04:11:43;;;;;;;0.33;0.33;;;14.20;99.90;;;;;;5096483;28;20047;-75
2023/07/27 04:14:08;;;;;;;0.95;0.85;;;14.10;99.90;;;;;;5096052;28;20495;-74
2023/07/27 04:16:34;;;;;;;0.40;0.40;;;14.20;99.90;;;;;;5096031;28;20156;-75
2023/07/27 04:19:00;;;;;;;0.35;0.35;;;14.20;99.90;;;;;;5096286;28;20109;-75
2023/07/27 04:21:25;;;;;;;0.45;0.45;;;14.10;99.90;;;;;;5096003;28;20058;-75
2023/07/27 04:23:51;;;;;;;0.40;0.40;;;14.10;99.90;;;;;;5096427;28;20041;-75
2023/07/27 04:26:17;;;;;;;0.50;0.50;;;14.10;99.90;;;;;;5095814;28;20086;-74
2023/07/27 04:28:42;;;;;;;0.47;0.47;;;14.10;99.90;;;;;;5095788;28;20078;-75
2023/07/27 04:31:08;;;;;;;0.50;0.50;;;14.10;99.90;;;;;;5095770;28;20036;-75
2023/07/27 04:33:33;;;;;;;0.40;0.40;;;14.10;99.90;;;;;;5095592;28;20476;-74
2023/07/27 04:36:02;;;;;;;0.40;0.40;;;14.10;99.90;;;;;;5095632;28;20090;-73
2023/07/27 04:38:27;;;;;;;0.50;0.50;;;14.10;99.90;;;;;;5095649;28;20426;-74
2023/07/27 04:40:53;;;;;;;0.57;0.57;;;14.10;99.90;;;;;;5095739;28;20036;-75
2023/07/27 04:43:19;;;;;;;1.30;0.50;;;14.10;99.90;;;;;;5095766;28;20035;-76
2023/07/27 04:45:45;;;;;;;0.40;0.40;;;14.10;99.90;;;;;;5095193;28;20040;-74
2023/07/27 04:48:10;;;;;;;0.40;0.40;;;14.10;99.90;;;;;;5095252;28;20087;-75
2023/07/27 04:50:36;;;;;;;0.40;0.40;;;14.10;99.90;;;;;;5095344;28;20079;-74
2023/07/27 04:53:02;;;;;;;0.50;0.50;;;14.10;99.90;;;;;;5095320;28;20044;-73
2023/07/27 04:55:27;;;;;;;1.70;0.60;;;14.10;99.90;;;;;;5095376;28;20086;-74
2023/07/27 04:57:53;;;;;;;0.60;0.60;;;14.10;99.90;;;;;;5095158;28;20506;-74
2023/07/27 05:00:19;;;;;;;0.30;0.30;;;14.10;99.90;;;;;;5095299;28;20380;-72
2023/07/27 05:02:44;;;;;;;0.40;0.40;;;14.10;99.90;;;;;;5095333;28;20036;-73
2023/07/27 05:05:10;;;;;;;0.40;0.40;;;14.00;99.90;;;;;;5095218;28;20047;-75
2023/07/27 05:07:35;;;;;;;0.40;0.40;;;14.10;99.90;;;;;;5095164;28;20090;-74
2023/07/27 05:10:01;;;;;;;0.40;0.40;;;14.00;99.90;;;;;;5095111;28;20040;-72
2023/07/27 05:12:28;;;;;;;0.50;0.50;;;14.10;99.90;;;;;;5094915;28;20044;-73
2023/07/27 05:14:54;;;;;;;0.43;0.43;;;14.00;99.90;;;;;;5094986;28;20093;-74
2023/07/27 05:17:19;;;;;;;0.50;0.50;;;14.00;99.90;;;;;;5094844;28;20464;-73
2023/07/27 05:19:45;;;;;;;0.50;0.50;;;14.10;99.90;;;;;;5095364;28;20052;-73
2023/07/27 05:22:11;;;;;;;0.52;0.45;;;14.00;99.90;;;;;;5094925;28;20122;-74
2023/07/27 05:24:37;;;;;;;0.50;0.50;;;14.10;99.90;;;;;;5094801;28;20520;-75
2023/07/27 05:27:03;;;;;;;0.75;0.70;;;14.10;99.90;;;;;;5094810;28;20391;-74
2023/07/27 05:29:30;;;;;;;2.28;1.00;;;14.10;99.90;;;;;;5094597;28;20036;-72
2023/07/27 05:31:55;;;;;;;0.50;0.50;;;14.10;99.90;;;;;;5094676;28;20043;-74
2023/07/27 05:34:21;;;;;;;0.63;0.60;;;14.10;99.90;;;;;;5094382;28;20032;-73
2023/07/27 05:36:46;;;;;;;0.40;0.40;;;14.10;99.90;;;;;;5095005;28;20035;-73
2023/07/27 05:39:12;;;;;;;0.40;0.40;;;14.10;99.90;;;;;;5094875;28;20482;-76
2023/07/27 05:41:38;;;;;;;0.75;0.60;;;14.20;99.90;;;;;;5094301;28;20404;-74
2023/07/27 05:44:04;;;;;;;0.50;0.50;;;14.10;99.90;;;;;;5094720;28;20071;-74
2023/07/27 05:46:30;;;;;;;0.65;0.65;;;14.10;99.90;;;;;;5094581;28;20040;-72
2023/07/27 05:48:56;;;;;;;0.95;0.68;;;14.20;99.90;;;;;;5094367;28;20044;-73
2023/07/27 05:51:21;;;;;;;0.60;0.60;;;14.10;99.90;;;;;;5094292;28;20059;-73
2023/07/27 05:53:47;;;;;;;0.40;0.40;;;14.10;99.90;;;;;;5094296;28;20472;-73
2023/07/27 05:56:13;;;;;;;0.40;0.40;;;14.20;99.90;;;;;;5094201;28;20468;-73
2023/07/27 05:58:39;;;;;;;0.50;0.50;;;14.20;99.90;;;;;;5093576;28;20050;-74
2023/07/27 06:01:04;;;;;;;0.40;0.40;;;14.20;99.90;;;;;;5094140;28;20426;-75
2023/07/27 06:03:31;;;;;;;0.50;0.50;;;14.20;99.90;;;;;;5094100;28;20047;-76
2023/07/27 06:05:56;;;;;;;0.60;0.60;;;14.20;99.90;;;;;;5094205;28;20117;-76
2023/07/27 06:08:22;;;;;;;0.67;0.67;;;14.20;99.90;;;;;;5094907;28;20418;-76
2023/07/27 06:10:48;;;;;;;1.70;0.80;;;14.20;99.90;;;;;;5094582;28;20072;-79
2023/07/27 06:13:14;;;;;;;0.80;0.68;;;14.30;99.90;;;;;;5094057;28;20460;-81
2023/07/27 06:15:47;;;;;;;0.40;0.40;;;14.20;99.90;;;;;;5093959;28;20036;-73
2023/07/27 06:18:13;;;;;;;0.73;0.73;;;14.20;99.90;;;;;;5093740;28;20098;-73
2023/07/27 06:20:39;;;;;;;1.40;1.03;;;14.30;99.90;;;;;;5093946;28;20044;-73
2023/07/27 06:23:04;;;;;;;0.40;0.40;;;14.30;99.90;;;;;;5093912;28;20062;-73
2023/07/27 06:25:30;;;;;;;0.68;0.52;;;14.30;99.90;;;;;;5093883;28;20040;-72
2023/07/27 06:27:56;;;;;;;0.57;0.57;;;14.30;99.90;;;;;;5093974;28;20075;-72
2023/07/27 06:30:21;;;;;;;1.85;0.80;;;14.30;99.90;;;;;;5093914;28;20551;-73
2023/07/27 06:32:47;;;;;;;0.40;0.40;;;14.30;99.90;;;;;;5093809;28;20117;-74
2023/07/27 06:35:13;;;;;;;0.52;0.52;;;14.30;99.90;;;;;;5094077;28;20349;-73
2023/07/27 06:37:38;;;;;;;0.68;0.68;;;14.30;99.90;;;;;;5094283;28;20036;-74
2023/07/27 06:40:05;;;;;;;0.57;0.50;;;14.30;99.90;;;;;;5094085;28;20605;-74
2023/07/27 06:42:31;;;;;;;1.20;0.85;;;14.40;99.90;;;;;;5093755;28;20047;-74
2023/07/27 06:44:56;;;;;;;0.97;0.80;;;14.50;99.90;;;;;;5093720;28;20032;-73
2023/07/27 06:47:22;;;;;;;1.03;0.70;;;14.50;99.90;;;;;;5093754;28;20093;-72
2023/07/27 06:49:47;;;;;;;0.50;0.50;;;14.50;99.90;;;;;;5093347;28;20048;-81
2023/07/27 06:52:13;;;;;;;0.60;0.60;;;14.50;99.90;;;;;;5092794;28;20043;-79
2023/07/27 06:54:39;;;;;;;0.50;0.50;;;14.50;99.90;;;;;;5094106;28;20036;-76
2023/07/27 06:57:09;;;;;;;1.45;0.88;;;14.60;99.90;;;;;;5093864;28;20032;-76
2023/07/27 06:59:36;;;;;;;0.50;0.50;;;14.50;99.90;;;;;;5093492;28;20050;-78
2023/07/27 07:02:01;;;;;;;0.50;0.50;;;14.60;99.90;;;;;;5093619;28;20051;-75
2023/07/27 07:04:29;;;;;;;0.70;0.70;;;14.60;99.90;;;;;;5093359;28;20048;-76
2023/07/27 07:06:55;;;;;;;0.98;0.93;;;14.70;99.90;;;;;;5092614;28;20511;-76
2023/07/27 07:09:21;;;;;;;1.27;0.90;;;14.70;99.90;;;;;;5094783;28;20078;-76
2023/07/27 07:11:48;;;;;;;0.50;0.50;;;14.70;99.90;;;;;;5097432;28;20077;-75
2023/07/27 07:14:14;;;;;;;0.40;0.40;;;14.80;99.90;;;;;;5097250;28;20032;-75
2023/07/27 07:16:40;;;;;;;1.13;1.02;;;14.70;99.90;;;;;;5097400;28;20039;-74
2023/07/27 07:19:05;;;;;;;0.50;0.50;;;14.80;99.90;;;;;;5097498;28;20066;-76
2023/07/27 07:21:31;;;;;;;1.00;0.50;;;14.80;99.90;;;;;;5097597;28;20056;-76
2023/07/27 07:23:57;;;;;;;0.40;0.40;;;14.80;99.90;;;;;;5096047;28;20040;-77
2023/07/27 07:26:22;;;;;;;0.70;0.70;;;14.90;99.90;;;;;;5097412;28;20040;-76
2023/07/27 07:28:48;;;;;;;0.80;0.77;;;14.80;99.90;;;;;;5097099;28;20089;-77
2023/07/27 07:31:14;;;;;;;0.60;0.60;;;14.80;99.90;;;;;;5096765;28;20482;-74
2023/07/27 07:33:39;;;;;;;0.60;0.60;;;14.80;99.90;;;;;;5097236;28;20044;-76
2023/07/27 07:36:05;;;;;;;0.50;0.50;;;15.00;99.90;;;;;;5097048;28;20541;-76
2023/07/27 07:38:31;;;;;;;0.50;0.50;;;14.90;99.90;;;;;;5096940;28;20036;-76
2023/07/27 07:40:57;;;;;;;0.50;0.50;;;15.00;99.90;;;;;;5096583;28;20525;-77
2023/07/27 07:43:23;;;;;;;0.90;0.70;;;14.90;99.90;;;;;;5096854;28;20081;-75
2023/07/27 07:45:48;;;;;;;0.60;0.60;;;14.80;99.90;;;;;;5096813;28;20036;-75
2023/07/27 07:48:14;;;;;;;0.60;0.60;;;14.90;99.90;;;;;;5097212;28;20483;-76
2023/07/27 07:50:40;;;;;;;1.95;0.80;;;14.90;99.90;;;;;;5096747;28;20039;-76
2023/07/27 07:53:05;;;;;;;0.68;0.60;;;14.90;99.90;;;;;;5096655;28;20040;-76
2023/07/27 07:55:37;;;;;;;0.40;0.40;;;14.90;99.90;;;;;;5096827;28;20051;-75
2023/07/27 07:58:03;;;;;;;0.73;0.73;;;15.00;99.90;;;;;;5095546;28;20426;-76
2023/07/27 08:00:29;;;;;;;0.40;0.40;;;15.00;99.90;;;;;;5096179;28;20048;-75
2023/07/27 08:02:55;;;;;;;0.67;0.67;;;15.00;99.90;;;;;;5097268;28;20043;-76
2023/07/27 08:05:20;;;;;;;0.50;0.50;;;15.00;99.90;;;;;;5096587;28;20119;-75
2023/07/27 08:07:46;;;;;;;0.57;0.57;;;14.90;99.90;;;;;;5096193;28;20040;-76
2023/07/27 08:10:12;;;;;;;0.93;0.93;;;14.90;99.90;;;;;;5096157;28;20036;-73
2023/07/27 08:12:38;;;;;;;0.50;0.50;;;14.90;99.90;;;;;;5095873;28;20418;-74
2023/07/27 08:15:05;;;;;;;0.60;0.60;;;14.90;99.90;;;;;;5096085;28;20076;-73
2023/07/27 08:17:31;;;;;;;0.50;0.50;;;14.90;99.90;;;;;;5096187;28;20043;-73
2023/07/27 08:19:57;;;;;;;0.80;0.80;;;15.00;99.90;;;;;;5096355;28;20052;-77
2023/07/27 08:22:23;;;;;;;0.50;0.50;;;15.00;99.90;;;;;;5095722;28;20048;-74
2023/07/27 08:24:50;;;;;;;0.60;0.60;;;15.00;99.90;;;;;;5096004;28;20040;-78
2023/07/27 08:27:16;;;;;;;0.40;0.40;;;15.00;99.90;;;;;;5096055;28;20036;-79
2023/07/27 08:29:41;;;;;;;0.98;0.88;;;15.00;99.90;;;;;;5096070;28;20486;-77
2023/07/27 08:32:07;;;;;;;0.45;0.45;;;15.10;99.90;;;;;;5096768;28;20054;-77
2023/07/27 08:34:33;;;;;;;1.70;0.70;;;15.10;99.90;;;;;;5096333;28;20036;-77
2023/07/27 08:36:59;;;;;;;0.40;0.40;;;15.10;99.90;;;;;;5095947;28;20539;-75
2023/07/27 08:39:24;;;;;;;0.73;0.60;;;15.10;99.90;;;;;;5095977;28;20507;-78
2023/07/27 08:41:50;;;;;;;0.50;0.50;;;15.20;99.90;;;;;;5095943;28;20044;-79
2023/07/27 08:44:16;;;;;;;0.98;0.93;;;15.20;99.90;;;;;;5095881;28;20062;-77
2023/07/27 08:46:42;;;;;;;0.77;0.65;;;15.20;99.90;;;;;;5095882;28;20044;-75
2023/07/27 08:49:15;;;;;;;0.30;0.30;;;15.20;99.90;;;;;;5095688;28;20054;-78
2023/07/27 08:51:43;;;;;;;0.73;0.55;;;15.30;99.90;;;;;;5095406;28;20083;-77
2023/07/27 08:54:09;;;;;;;0.40;0.40;;;15.30;99.90;;;;;;5095391;28;20040;-79
2023/07/27 08:56:35;;;;;;;0.30;0.30;;;15.30;99.90;;;;;;5095369;28;20048;-79
2023/07/27 08:59:01;;;;;;;0.40;0.40;;;15.30;99.90;;;;;;5095302;28;20044;-78
2023/07/27 09:01:27;;;;;;;1.10;0.77;;;15.40;99.90;;;;;;5095309;28;20093;-77
2023/07/27 09:03:52;;;;;;;0.40;0.40;;;15.30;99.90;;;;;;5094578;28;20472;-79
2023/07/27 09:06:39;;;;;;;0.60;0.60;;;15.30;99.90;;;;;;5094151;28;20495;-75
2023/07/27 09:09:31;;;;;;;0.80;0.80;;;15.40;99.90;;;;;;5094737;28;20051;-78
2023/07/27 09:11:57;;;;;;;0.40;0.40;;;15.40;99.90;;;;;;5089657;28;20553;-81
2023/07/27 09:14:23;;;;;;;0.30;0.30;;;15.40;99.90;;;;;;5093670;28;20040;-76
2023/07/27 09:16:49;;;;;;;0.40;0.40;;;15.40;99.90;;;;;;5095055;28;20048;-77
2023/07/27 09:19:18;;;;;;;0.52;0.52;;;15.40;99.90;;;;;;5095078;28;20083;-78
2023/07/27 09:21:46;;;;;;;0.40;0.40;;;15.50;99.90;;;;;;5094647;28;20039;-76
2023/07/27 09:24:12;;;;;;;0.40;0.40;;;15.60;99.90;;;;;;5094565;28;20036;-76
2023/07/27 09:26:52;;;;;;;0.38;0.38;;;15.60;99.90;;;;;;5094884;28;20040;-75
2023/07/27 09:29:19;;;;;;;0.65;0.55;;;15.70;99.90;;;;;;5094866;28;20085;-75
2023/07/27 09:31:50;;;;;;;0.30;0.30;;;15.70;99.90;;;;;;5094368;28;20040;-76
2023/07/27 09:34:18;;;;;;;0.38;0.38;;;15.80;99.90;;;;;;5094205;28;20098;-76
2023/07/27 09:36:45;;;;;;;0.40;0.40;;;15.80;99.90;;;;;;5094659;28;20083;-74
2023/07/27 09:39:11;;;;;;;0.50;0.50;;;15.80;99.90;;;;;;5094817;28;20115;-76
2023/07/27 09:41:37;;;;;;;0.50;0.50;;;15.80;99.90;;;;;;5093999;28;20048;-75
2023/07/27 09:44:04;;;;;;;2.55;0.40;;;15.90;99.90;;;;;;5093782;28;20123;-75
2023/07/27 09:46:31;;;;;;;0.40;0.40;;;15.90;99.90;;;;;;5094481;28;20040;-75
2023/07/27 09:48:59;;;;;;;0.50;0.50;;;16.00;99.90;;;;;;5093860;28;20499;-77
2023/07/27 09:51:29;;;;;;;0.30;0.30;;;16.10;99.90;;;;;;5094423;28;20036;-77
2023/07/27 09:53:56;;;;;;;0.50;0.50;;;16.20;99.90;;;;;;5094492;28;20028;-75
2023/07/27 09:56:22;;;;;;;0.40;0.40;;;16.20;99.90;;;;;;5094423;28;20044;-75
2023/07/27 09:58:48;;;;;;;0.35;0.35;;;16.20;99.90;;;;;;5094787;28;20036;-75
2023/07/27 10:01:14;;;;;;;0.30;0.30;;;16.30;99.90;;;;;;5094025;28;20488;-75
2023/07/27 10:03:40;;;;;;;0.40;0.40;;;16.30;99.90;;;;;;5094410;28;20036;-75
2023/07/27 10:06:06;;;;;;;0.30;0.30;;;16.30;99.90;;;;;;5093711;28;20081;-76
2023/07/27 10:08:35;;;;;;;0.30;0.30;;;16.30;99.90;;;;;;5094203;28;20047;-77
2023/07/27 10:11:01;;;;;;;0.30;0.30;;;16.40;99.90;;;;;;5094193;28;20420;-75
2023/07/27 10:13:27;;;;;;;0.40;0.40;;;16.40;99.90;;;;;;5094141;28;20127;-78
2023/07/27 10:15:54;;;;;;;0.33;0.33;;;16.50;99.90;;;;;;5094008;28;20087;-76
2023/07/27 10:18:24;;;;;;;0.50;0.40;;;16.70;99.90;;;;;;5093867;28;20387;-76
2023/07/27 10:20:50;;;;;;;0.50;0.50;;;16.60;99.90;;;;;;5094078;28;20047;-84
2023/07/27 10:23:28;;;;;;;0.35;0.35;;;16.60;99.90;;;;;;5093884;28;20044;-73
2023/07/27 10:25:56;;;;;;;0.30;0.30;;;16.60;99.90;;;;;;5093698;28;20038;-75
2023/07/27 10:28:41;;;;;;;0.32;0.30;;;16.70;99.90;;;;;;5093587;28;20075;-73
2023/07/27 10:31:25;;;;;;;0.32;0.32;;;16.70;99.90;;;;;;5093516;28;20039;-73
2023/07/27 10:34:12;;;;;;;0.30;0.30;;;16.70;99.90;;;;;;5094142;28;20039;-74
2023/07/27 10:36:59;;;;;;;0.40;0.30;;;16.80;99.90;;;;;;5093445;28;20102;-73
2023/07/27 10:39:28;;;;;;;0.50;0.50;;;16.90;99.90;;;;;;5093568;28;20111;-77
2023/07/27 10:42:04;;;;;;;0.50;0.40;;;16.90;99.90;;;;;;5093640;28;20046;-73
2023/07/27 10:44:46;;;;;;;0.35;0.35;;;17.00;99.90;;;;;;5095953;28;20421;-74
2023/07/27 10:47:20;;;;;;;0.40;0.40;;;17.00;99.90;;;;;;5096202;28;20043;-74
2023/07/27 10:49:48;;;;;;;0.30;0.30;;;17.00;99.90;;;;;;5097016;28;20174;-74
2023/07/27 10:52:19;;;;;;;0.30;0.30;;;17.10;99.90;;;;;;5097882;28;20071;-75
2023/07/27 10:54:46;;;;;;;0.38;0.38;;;17.20;99.90;;;;;;5097659;28;20460;-74
2023/07/27 10:57:12;;;;;;;;;;;17.20;99.90;;;;;;5098397;28;20120;-74
2023/07/27 10:59:42;;;;;;;0.30;0.30;;;17.20;99.90;;;;;;5097779;28;20263;-74
2023/07/27 11:02:15;;;;;;;0.30;0.30;;;17.20;99.90;;;;;;5097540;28;20468;-75
2023/07/27 11:04:41;;;;;;;0.43;0.43;;;17.20;99.90;;;;;;5097674;28;20044;-76
2023/07/27 11:07:12;;;;;;;0.50;0.50;;;17.20;99.90;;;;;;5097627;28;20055;-77
2023/07/27 11:09:44;;;;;;;0.30;0.30;;;17.20;99.90;;;;;;5097654;28;20040;-77
2023/07/27 11:12:10;;;;;;;0.35;0.35;;;17.20;99.90;;;;;;5097710;28;20051;-79
2023/07/27 11:14:36;;;;;;;0.30;0.30;;;17.20;99.90;;;;;;5097296;28;20036;-75
2023/07/27 11:17:03;;;;;;;0.30;0.30;;;17.20;99.90;;;;;;5097079;28;20537;-78
2023/07/27 11:19:29;;;;;;;0.30;0.30;;;17.30;99.90;;;;;;5097650;28;20055;-76
2023/07/27 11:21:55;;;;;;;0.30;0.30;;;17.30;99.90;;;;;;5097597;28;20459;-74
2023/07/27 11:24:21;;;;;;;0.30;0.30;;;17.30;99.90;;;;;;5095992;28;20040;-78
2023/07/27 11:26:47;;;;;;;0.40;0.40;;;17.40;99.90;;;;;;5097035;28;20036;-75
2023/07/27 11:29:12;;;;;;;0.30;0.30;;;17.40;99.90;;;;;;5097178;28;20300;-78
2023/07/27 11:31:38;;;;;;;0.30;0.30;;;17.40;99.90;;;;;;5096776;28;20499;-74
2023/07/27 11:34:04;;;;;;;0.30;0.30;;;17.50;99.90;;;;;;5096785;28;20521;-75
2023/07/27 11:36:31;;;;;;;0.25;0.25;;;17.60;99.90;;;;;;5097024;28;20353;-75
2023/07/27 11:38:57;;;;;;;;;;;17.60;99.90;;;;;;5097490;28;20131;-74
2023/07/27 11:41:27;;;;;;;1.10;0.57;;;17.70;99.90;;;;;;5096887;28;19916;-74
2023/07/27 11:43:57;;;;;;;0.40;0.40;;;17.80;99.90;;;;;;5096769;28;20146;-75
2023/07/27 11:46:27;;;;;;;0.30;0.30;;;17.90;99.90;;;;;;5096770;28;20119;-75
2023/07/27 11:48:53;;;;;;;0.40;0.40;;;17.90;99.90;;;;;;5096742;28;20040;-74
2023/07/27 11:51:19;;;;;;;0.20;0.20;;;18.00;99.90;;;;;;5096740;28;20040;-75
2023/07/27 11:53:46;;;;;;;0.30;0.30;;;18.10;99.90;;;;;;5096820;28;20039;-74
2023/07/27 11:56:12;;;;;;;;;;;18.10;99.90;;;;;;5095908;28;20039;-77
2023/07/27 11:58:40;;;;;;;0.30;0.30;;;18.20;99.90;;;;;;5096574;28;20010;-74
2023/07/27 12:01:06;;;;;;;0.30;0.30;;;18.20;99.90;;;;;;5096522;28;20051;-75
2023/07/27 12:03:33;;;;;;;0.40;0.40;;;18.30;99.90;;;;;;5096543;28;20044;-73
2023/07/27 12:06:00;;;;;;;0.30;0.30;;;18.20;99.90;;;;;;5096472;28;20040;-74
2023/07/27 12:08:26;;;;;;;0.38;0.38;;;18.30;99.90;;;;;;5096389;28;20379;-75
2023/07/27 12:10:55;;;;;;;0.30;0.30;;;18.30;99.90;;;;;;5096340;28;20511;-75
2023/07/27 12:13:23;;;;;;;0.30;0.30;;;18.30;99.90;;;;;;5096165;28;20364;-74
2023/07/27 12:16:00;;;;;;;0.40;0.40;;;18.40;99.90;;;;;;5096175;28;20472;-74
2023/07/27 12:18:27;;;;;;;0.30;0.30;;;18.50;99.90;;;;;;5095962;28;20075;-75
2023/07/27 12:20:55;;;;;;;0.40;0.40;;;18.50;99.90;;;;;;5096478;28;20127;-75
2023/07/27 12:23:22;;;;;;;0.30;0.30;;;18.60;99.90;;;;;;5096116;28;20044;-71
2023/07/27 12:25:49;;;;;;;0.30;0.30;;;18.60;99.90;;;;;;5095924;28;20040;-73
2023/07/27 12:28:15;;;;;;;0.30;0.30;;;18.70;99.90;;;;;;5095993;28;20032;-72
2023/07/27 12:30:41;;;;;;;0.30;0.30;;;18.60;99.90;;;;;;5096007;28;20079;-72
2023/07/27 12:33:06;;;;;;;0.40;0.40;;;18.70;99.90;;;;;;5095780;28;20078;-74
2023/07/27 12:35:32;;;;;;;0.30;0.30;;;18.70;99.90;;;;;;5095856;28;20367;-73
2023/07/27 12:37:58;;;;;;;0.53;0.30;;;18.70;99.90;;;;;;5095735;28;20065;-75
2023/07/27 12:40:25;;;;;;;0.30;0.30;;;18.60;99.90;;;;;;5095700;28;20089;-73
2023/07/27 12:42:51;;;;;;;0.30;0.30;;;18.70;99.90;;;;;;5095765;28;20398;-73
2023/07/27 12:45:19;;;;;;;0.75;0.55;;;18.70;99.90;;;;;;5095898;28;20375;-74
2023/07/27 12:47:48;;;;;;;0.20;0.20;;;18.70;99.90;;;;;;5095802;28;20050;-73